x

Central Gulf Of Alaska - 265nm West Of Cape Ommaney, Akk (46085) Wave Buoy

10:50am - Mon 22nd Dec 2014 All times are UTC.

  • Sig Wave height 12.5ft
  • Peak Period 12s
  • Average Period 8s
  • Wind
    22mph, 27mph gusts
  • Sea Temp 47°f
  • Air Temp 46°f
  • Sea Pressure 1008.4mb

More Historic Weather Station data

Upgrade to MSW Pro to gain access to the past 30 days of data for over 8000 Wavebouys and Weather Stations around the globe.

Join Pro

Comparision Forecast

View Surf forecast
   
Mon 12/22 10:50am 12.5ft 12s 8s 22 27 mph 1008.4mb 47f 46f
9:50am 14ft 11s 7s 22 27 mph 1007.5mb 47f 46f
8:50am 13ft 11s 7s 25 29 mph 1006.6mb 47f 46f
7:50am 13ft 10s 7s 22 27 mph 1005.8mb 47f 45f
6:50am 12ft 8s 7s 29 34 mph 1004.5mb 47f 45f
5:50am 12ft 10s 7s 25 34 mph 1003.3mb 47f 46f
4:50am 14ft 14s 7s 25 29 mph 1002.3mb 47f 45f
3:50am 12.5ft 11s 7s 22 29 mph 1001.1mb 47f 45f
2:50am 11ft 13s 7s 25 31 mph 1000.1mb 47f 45f
1:50am 12.5ft 12s 8s 25 31 mph 999mb 47f 45f
12:50am 12ft 14s 8s 22 29 mph 997.9mb 47f 46f
Sun 12/21 11:50pm 11ft 14s 8s 20 25 mph 997.1mb 47f 45f
10:50pm 10.5ft 13s 7s 18 22 mph 996.2mb 47f 45f
9:50pm 12ft 14s 8s 22 31 mph 995.3mb 47f 45f
8:50pm 10.5ft 10s 8s 20 22 mph 994.5mb 47f 45f
7:50pm 11ft 11s 8s 20 25 mph 993.6mb 47f 45f
6:50pm 10.5ft 11s 8s 18 22 mph 992.5mb 47f 45f
5:50pm 11ft 11s 8s 16 20 mph 991.4mb 47f 45f
4:50pm 11.5ft 15s 9s 13 18 mph 990.4mb 47f 45f
3:50pm 12ft 11s 9s 13 16 mph 989.4mb 47f 45f
2:50pm 13ft 11s 9s 11 13 mph 988.5mb 47f 44f
1:50pm 12ft 12s 9s 9 13 mph 987.7mb 47f 45f
12:50pm 12ft 11s 9s 9 13 mph 986.8mb 47f 44f
11:50am 11.5ft 11s 9s 11 16 mph 985.9mb 46f 44f
10:50am 11ft 10s 8s 13 18 mph 985.1mb 46f 44f
9:50am 11ft 13s 8s 11 16 mph 984.1mb 46f 44f
8:50am 11ft 11s 8s 13 18 mph 983.1mb 46f 44f
7:50am 11ft 12s 8s 13 18 mph 982.2mb 46f 44f
6:50am 9.5ft 10s 8s 9 11 mph 981.5mb 46f 44f
5:50am 9ft 9s 7s 11 16 mph 980.5mb 46f 44f
4:50am 8.5ft 10s 7s 9 11 mph 979.8mb 46f 44f
3:50am 9ft 9s 7s 13 16 mph 978.9mb 46f 44f
2:50am 8.5ft 9s 7s 16 20 mph 978.2mb 46f 44f
1:50am 8ft 9s 7s 13 18 mph 977.5mb 46f 44f
12:50am 10ft 10s 7s 16 18 mph 976.7mb 47f 44f
Sat 12/20 11:50pm 9.5ft 10s 7s 16 20 mph 975.7mb 47f 45f
10:50pm 10.5ft 11s 8s 16 18 mph 975mb 46f 45f
9:50pm 10ft 10s 8s 16 20 mph 974.3mb 46f 45f
8:50pm 9ft 10s 7s 16 20 mph 973.6mb 46f 45f
7:50pm 10ft 10s 7s 16 20 mph 972.9mb 46f 45f
6:50pm 10ft 9s 7s 16 20 mph 972.3mb 46f 44f
5:50pm 10ft 9s 7s 16 20 mph 971.5mb 46f 44f
4:50pm 10ft 9s 7s 16 18 mph 971.1mb 46f 44f
3:50pm 9.5ft 10s 7s 13 18 mph 970.6mb 46f 43f
2:50pm 10ft 11s 7s 16 20 mph 970.6mb 46f 43f
1:50pm 11ft 11s 8s 13 18 mph 970.7mb 46f 43f
12:50pm 11ft 10s 8s 11 16 mph 971.1mb 46f 43f
11:50am 10.5ft 11s 8s 11 16 mph 971.4mb 46f 42f
10:50am 11ft 11s 8s 9 11 mph 972.1mb 46f 42f
9:50am 12ft 10s 8s 9 13 mph 972.8mb 46f 43f
8:50am 12ft 11s 8s 9 11 mph 973.3mb 46f 44f
7:50am 12.5ft 11s 8s 16 20 mph 973.7mb 46f 44f
6:50am 12ft 13s 8s 13 18 mph 974.2mb 46f 45f
5:50am 12ft 10s 8s 13 18 mph 974.5mb 46f 44f
4:50am 14ft 13s 8s 16 20 mph 974.9mb 46f 44f
3:50am 14ft 12s 8s 16 20 mph 975mb 46f 45f
2:50am 14.5ft 11s 8s 16 20 mph 975.1mb 46f 45f
1:50am 14ft 11s 8s 16 18 mph 975.2mb 46f 45f
12:50am 13ft 12s 8s 16 18 mph 975.2mb 46f 45f
Fri 12/19 11:50pm 14ft 14s 8s 16 20 mph 975.2mb 46f 45f
10:50pm 15ft 12s 8s 18 20 mph 975.3mb 46f 45f
9:50pm 16ft 13s 8s 20 25 mph 975.2mb 46f 45f
8:50pm 15.5ft 13s 8s 22 27 mph 974.9mb 46f 43f
7:50pm 17.5ft 12s 8s 31 38 mph 973.9mb 46f 43f
6:50pm 15ft 11s 8s 29 38 mph 973.4mb 46f 44f
5:50pm 17.5ft 11s 8s 29 38 mph 974.4mb 46f 45f
4:50pm 17ft 13s 8s 25 31 mph 975.3mb 46f 45f
3:50pm 16ft 12s 8s 25 31 mph 976mb 46f 46f
2:50pm 17.5ft 14s 8s 27 36 mph 976.4mb 46f 46f
1:50pm 16.5ft 11s 8s 27 34 mph 976.9mb 47f 44f
12:50pm 16.5ft 11s 8s 27 36 mph 977.6mb 47f 44f
11:50am 19ft 12s 9s 25 31 mph 978.1mb 47f 46f
10:50am 16.5ft 12s 8s 27 31 mph 978.7mb 47f 45f
9:50am 18.5ft 12s 9s 22 29 mph 979mb 47f 45f
8:50am 19ft 11s 9s 27 34 mph 979.1mb 47f 46f
7:50am 19ft 11s 9s 25 29 mph 979.1mb 47f 46f
6:50am 19.5ft 12s 9s 25 29 mph 979.1mb 47f 46f
5:50am 18.5ft 16s 9s 25 29 mph 978.8mb 47f 46f
4:50am 19.5ft 12s 9s 22 29 mph 978.1mb 47f 46f
3:50am 19.5ft 16s 9s 22 27 mph 977.6mb 47f 46f
2:50am 22.5ft 10s 9s 25 29 mph 976.6mb 47f 46f
1:50am 19.5ft 12s 9s 22 27 mph 975.4mb 47f 46f
12:50am 21ft 11s 9s 13 20 mph 974.8mb 47f 44f
Thu 12/18 11:50pm 19ft 11s 8s 11 18 mph 975.3mb 47f 44f
10:50pm 16.5ft 10s 7s 29 36 mph 976.2mb 47f 45f
9:50pm 16.5ft 11s 8s 29 34 mph 977.8mb 47f 45f
8:50pm 16ft 10s 8s 36 45 mph 978.8mb 47f 44f
7:50pm 15ft 10s 7s 34 43 mph 979.7mb 47f 45f
6:50pm 17.5ft 10s 7s 31 43 mph 980.4mb 47f 45f
5:50pm 15.5ft 10s 7s 36 43 mph 981mb 47f 45f
4:50pm 16.5ft 9s 7s 34 45 mph 981.2mb 47f 45f
3:50pm 14.5ft 8s 6s 34 43 mph 981.7mb 47f 45f
2:50pm 13.5ft 8s 6s 34 43 mph 982.1mb 47f 45f
1:50pm 12ft 8s 6s 36 43 mph 982.7mb 47f 46f
12:50pm 11.5ft 8s 6s 34 40 mph 983.7mb 47f 46f
11:50am 11ft 8s 6s 31 38 mph 984.9mb 47f 45f